Time;durP1;ratioP1;P1;durP2;ratioP2;P2;SDS_P1;SDS_P2;PMS_P1;PMS_P2;Temp;Humidity;BMP_temperature;BMP_pressure;BME280_temperature;BME280_humidity;BME280_pressure;Samples;Min_cycle;Max_cycle;Signal;HPM_P1;HPM_P2
2021/11/19 00:01:21;;;;;;;47.55;28.00;;;;;;;2.69;85.59;99841.59;1718345;82;21436;-56
2021/11/19 00:03:47;;;;;;;47.88;28.65;;;;;;;2.62;85.57;99834.30;1727199;81;21513;-56
2021/11/19 00:06:15;;;;;;;46.23;25.50;;;;;;;2.51;85.82;99827.88;1723463;82;21455;-56
2021/11/19 00:08:42;;;;;;;39.77;25.83;;;;;;;2.50;86.33;99824.84;1728000;80;21764;-56
2021/11/19 00:11:13;;;;;;;41.83;26.30;;;;;;;2.62;87.05;99821.31;1724629;82;21419;-56
2021/11/19 00:13:40;;;;;;;44.18;26.90;;;;;;;2.59;87.05;99817.44;1731721;82;21485;-56
2021/11/19 00:16:08;;;;;;;44.08;26.17;;;;;;;2.56;87.09;99826.98;1731955;81;21494;-55
2021/11/19 00:18:35;;;;;;;42.98;25.20;;;;;;;2.58;87.62;99822.63;1731073;82;21104;-55
2021/11/19 00:21:02;;;;;;;45.83;26.68;;;;;;;2.69;87.82;99823.41;1727855;82;22142;-56
2021/11/19 00:23:29;;;;;;;44.40;27.02;;;;;;;2.80;87.38;99816.40;1729949;82;21518;-56
2021/11/19 00:25:56;;;;;;;42.73;26.65;;;;;;;2.71;87.37;99808.68;1726301;82;21050;-55
2021/11/19 00:28:22;;;;;;;42.27;25.62;;;;;;;2.66;87.22;99810.48;1723420;80;21463;-59
2021/11/19 00:30:49;;;;;;;37.05;23.40;;;;;;;2.71;87.62;99806.09;1718491;81;21514;-55
2021/11/19 00:33:16;;;;;;;37.58;23.77;;;;;;;2.87;87.38;99805.53;1727854;81;21960;-57
2021/11/19 00:35:44;;;;;;;39.27;25.55;;;;;;;2.96;86.87;99809.77;1733161;82;21541;-55
2021/11/19 00:38:13;;;;;;;37.88;24.37;;;;;;;2.87;86.99;99805.09;1722534;82;21204;-55
2021/11/19 00:40:45;;;;;;;38.73;24.47;;;;;;;2.86;87.48;99802.09;1731501;82;21024;-55
2021/11/19 00:43:12;;;;;;;41.37;24.75;;;;;;;2.95;87.77;99797.22;1729149;82;21403;-56
2021/11/19 00:45:39;;;;;;;39.90;26.05;;;;;;;3.01;87.33;99799.75;1720453;82;21590;-55
2021/11/19 00:48:07;;;;;;;39.48;24.12;;;;;;;3.00;87.21;99795.91;1730160;82;20942;-56
2021/11/19 00:50:39;;;;;;;37.98;23.60;;;;;;;2.98;87.45;99793.76;1727621;82;27127;-55
2021/11/19 00:53:06;;;;;;;40.50;24.10;;;;;;;3.12;87.44;99784.07;1730943;81;21431;-56
2021/11/19 00:55:34;;;;;;;32.40;22.95;;;;;;;3.13;87.13;99792.30;1732806;82;21440;-55
2021/11/19 00:58:00;;;;;;;35.08;24.80;;;;;;;3.12;87.15;99781.02;1724448;82;21724;-56
2021/11/19 01:00:32;;;;;;;41.65;22.22;;;;;;;3.11;87.06;99772.83;1723048;81;21553;-55
2021/11/19 01:03:00;;;;;;;32.05;22.13;;;;;;;3.10;87.32;99773.69;1720607;82;21554;-55
2021/11/19 01:05:27;;;;;;;35.37;21.83;;;;;;;3.24;86.91;99766.18;1720065;81;21025;-56
2021/11/19 01:07:55;;;;;;;32.78;21.77;;;;;;;3.21;86.60;99769.69;1718341;82;21431;-56
2021/11/19 01:10:27;;;;;;;34.88;22.37;;;;;;;3.18;86.53;99768.86;1731903;82;22020;-56
2021/11/19 01:12:54;;;;;;;29.67;21.62;;;;;;;3.15;86.38;99767.16;1728651;80;21474;-56
2021/11/19 01:15:45;;;;;;;27.60;20.12;;;;;;;3.20;86.32;99764.50;1725393;81;21482;-56
2021/11/19 01:18:29;;;;;;;32.67;21.50;;;;;;;3.34;86.18;99765.22;1724727;81;21657;-56
2021/11/19 01:21:07;;;;;;;34.80;22.00;;;;;;;3.41;85.84;99759.08;1735416;81;21455;-56
2021/11/19 01:23:34;;;;;;;30.57;20.43;;;;;;;3.26;85.79;99754.91;1716947;82;21794;-56
2021/11/19 01:26:20;;;;;;;32.63;20.43;;;;;;;3.25;85.88;99753.18;1723019;82;20934;-56
2021/11/19 01:28:51;;;;;;;30.32;21.30;;;;;;;3.31;85.90;99749.23;1727405;82;21523;-55
2021/11/19 01:31:23;;;;;;;34.95;22.20;;;;;;;3.43;85.59;99744.77;1724357;82;21435;-56
2021/11/19 01:33:52;;;;;;;34.13;21.45;;;;;;;3.42;85.41;99746.94;1725538;82;20947;-56
2021/11/19 01:36:27;;;;;;;27.85;19.02;;;;;;;3.40;85.18;99743.50;1718718;81;22109;-56
2021/11/19 01:39:06;;;;;;;25.97;18.07;;;;;;;3.38;85.40;99747.41;1715160;80;21124;-57
2021/11/19 01:41:46;;;;;;;26.85;19.57;;;;;;;3.43;85.28;99744.32;1727965;80;21070;-56
2021/11/19 01:44:24;;;;;;;31.42;19.65;;;;;;;3.42;85.02;99746.48;1725689;82;21581;-56
2021/11/19 01:46:53;;;;;;;30.17;19.02;;;;;;;3.39;84.93;99737.86;1710091;82;21420;-55
2021/11/19 01:49:20;;;;;;;26.80;17.60;;;;;;;3.32;85.08;99731.89;1736302;82;21424;-56
2021/11/19 01:51:55;;;;;;;26.80;18.32;;;;;;;3.32;85.23;99729.30;1732648;82;21545;-55
2021/11/19 01:54:46;;;;;;;29.23;19.48;;;;;;;3.44;84.92;99733.03;1724672;82;21403;-56
2021/11/19 01:57:28;;;;;;;30.95;19.12;;;;;;;3.41;84.41;99725.70;1720067;82;21403;-55
2021/11/19 02:00:12;;;;;;;27.87;19.20;;;;;;;3.24;84.69;99722.89;1723339;82;21430;-55
2021/11/19 02:02:43;;;;;;;27.27;18.67;;;;;;;3.18;84.99;99720.78;1717320;80;21810;-55
2021/11/19 02:05:27;;;;;;;32.08;19.90;;;;;;;3.30;85.00;99719.36;1730372;82;21538;-55
2021/11/19 02:08:01;;;;;;;31.55;20.27;;;;;;;3.31;84.69;99714.56;1717461;82;21471;-55
2021/11/19 02:11:13;;;;;;;29.72;19.30;;;;;;;3.27;84.68;99706.39;1729098;82;21470;-56
2021/11/19 02:13:48;;;;;;;30.57;19.30;;;;;;;3.19;84.84;99705.19;1731390;82;21075;-56
2021/11/19 02:16:20;;;;;;;28.02;18.35;;;;;;;3.31;84.85;99704.17;1713244;81;21432;-56
2021/11/19 02:18:55;;;;;;;30.35;20.30;;;;;;;3.32;84.47;99707.20;1719057;82;21014;-56
2021/11/19 02:21:41;;;;;;;33.23;20.65;;;;;;;3.29;84.60;99707.23;1721300;82;21516;-56
2021/11/19 02:24:28;;;;;;;27.77;18.65;;;;;;;3.25;84.74;99710.75;1729150;82;21518;-56
2021/11/19 02:27:08;;;;;;;25.57;17.85;;;;;;;3.30;84.62;99704.61;1721592;82;21463;-56
2021/11/19 02:29:42;;;;;;;24.87;17.30;;;;;;;3.40;84.41;99703.20;1712550;82;21470;-56
2021/11/19 02:32:14;;;;;;;24.63;16.32;;;;;;;3.35;84.46;99703.25;1735274;82;21518;-56
2021/11/19 02:34:42;;;;;;;22.65;15.45;;;;;;;3.28;84.40;99704.23;1722975;82;22613;-56
2021/11/19 02:37:40;;;;;;;23.12;16.32;;;;;;;3.30;84.71;99712.86;1714417;82;21002;-56
2021/11/19 02:42:29;;;;;;;21.25;15.10;;;;;;;3.53;84.20;99711.27;1794325;78;23079;-57
2021/11/19 02:44:59;;;;;;;24.47;16.42;;;;;;;3.43;84.10;99701.88;1762344;80;21423;-56
2021/11/19 02:47:29;;;;;;;21.25;15.32;;;;;;;3.41;84.17;99696.69;1750941;80;21824;-57
2021/11/19 02:49:57;;;;;;;21.00;15.28;;;;;;;3.49;84.16;99700.05;1776314;80;21406;-57
2021/11/19 02:52:28;;;;;;;21.90;14.93;;;;;;;3.60;83.78;99697.31;1766799;80;21553;-59
2021/11/19 02:54:55;;;;;;;18.17;15.58;;;;;;;3.60;83.23;99695.13;1765489;80;21602;-57
2021/11/19 02:57:22;;;;;;;21.40;15.08;;;;;;;3.50;83.44;99700.89;1765237;80;21521;-58
2021/11/19 02:59:48;;;;;;;26.27;15.80;;;;;;;3.44;83.67;99697.08;1731252;81;21858;-58
2021/11/19 03:02:21;;;;;;;21.70;15.75;;;;;;;3.43;83.85;99698.83;1732413;81;21002;-57
2021/11/19 03:04:52;;;;;;;20.27;15.63;;;;;;;3.46;83.70;99700.52;1725769;81;21118;-57
2021/11/19 03:07:19;;;;;;;24.00;16.93;;;;;;;3.39;83.74;99702.77;1705624;83;21440;-58
2021/11/19 03:09:58;;;;;;;;;;;;;;;3.34;83.96;99703.30;1701482;83;21546;-57
2021/11/19 03:12:25;;;;;;;22.80;16.02;;;;;;;3.27;84.31;99689.50;1704146;83;20801;-56
2021/11/19 03:14:54;;;;;;;25.12;16.85;;;;;;;3.40;83.90;99685.86;1705441;83;21037;-56
2021/11/19 03:17:23;;;;;;;26.55;17.57;;;;;;;3.38;83.76;99680.28;1705439;83;21518;-57
2021/11/19 03:19:51;;;;;;;24.75;16.90;;;;;;;3.27;84.09;99672.61;1693038;83;21558;-56
2021/11/19 03:22:20;;;;;;;27.15;15.45;;;;;;;3.18;84.37;99674.87;1708865;83;21443;-57
2021/11/19 03:24:48;;;;;;;27.65;16.62;;;;;;;3.24;84.57;99670.03;1708786;83;21735;-56
2021/11/19 03:27:16;;;;;;;23.05;15.90;;;;;;;3.30;84.21;99669.53;1704213;83;20966;-56
2021/11/19 03:29:45;;;;;;;26.95;17.42;;;;;;;3.24;84.16;99666.14;1696266;83;21547;-57
2021/11/19 03:32:18;;;;;;;24.43;15.93;;;;;;;3.10;84.35;99658.52;1707836;83;21087;-57
2021/11/19 03:34:45;;;;;;;20.97;16.07;;;;;;;3.10;84.69;99657.22;1701255;83;21002;-57
2021/11/19 03:37:11;;;;;;;27.30;17.05;;;;;;;3.15;84.68;99651.99;1703714;83;21842;-56
2021/11/19 03:39:39;;;;;;;24.63;17.40;;;;;;;3.10;84.72;99649.43;1692553;83;21601;-56
2021/11/19 03:42:09;;;;;;;;;;;;;;;3.00;85.06;99655.18;1697515;83;21003;-57
2021/11/19 03:44:59;;;;;;;23.02;15.68;;;;;;;2.99;85.27;99658.64;1680563;84;20398;-58
2021/11/19 03:47:34;;;;;;;19.10;14.55;;;;;;;3.14;85.11;99650.25;1682741;84;21624;-57
2021/11/19 03:50:04;;;;;;;24.32;16.12;;;;;;;3.14;84.96;99645.06;1689159;84;21855;-57
2021/11/19 03:52:35;;;;;;;24.07;16.17;;;;;;;3.12;85.09;99643.33;1685381;84;21558;-56
2021/11/19 03:55:12;;;;;;;21.97;15.50;;;;;;;3.08;85.15;99637.75;1678253;84;21447;-56
2021/11/19 03:57:39;;;;;;;22.42;15.58;;;;;;;3.23;85.01;99628.91;1687063;84;21559;-56
2021/11/19 04:00:12;;;;;;;20.27;15.53;;;;;;;3.27;84.83;99632.33;1679154;84;21456;-56
2021/11/19 04:02:40;;;;;;;22.05;15.88;;;;;;;3.23;84.76;99628.91;1693339;84;21748;-56
2021/11/19 04:05:08;;;;;;;20.08;15.23;;;;;;;3.22;84.71;99621.13;1687647;83;21427;-56
2021/11/19 04:07:35;;;;;;;22.65;15.10;;;;;;;3.25;84.65;99614.59;1681823;84;21460;-56
2021/11/19 04:10:05;;;;;;;22.32;15.68;;;;;;;3.30;84.41;99618.00;1666833;84;21548;-56
2021/11/19 04:12:32;;;;;;;26.85;16.90;;;;;;;3.27;84.15;99620.19;1683798;82;21567;-56
2021/11/19 04:15:01;;;;;;;23.42;16.50;;;;;;;3.19;84.47;99619.89;1692489;84;22210;-56
2021/11/19 04:17:28;;;;;;;22.07;15.80;;;;;;;3.16;84.53;99609.07;1686560;84;21525;-57
2021/11/19 04:19:56;;;;;;;25.45;15.60;;;;;;;3.22;84.54;99602.94;1688089;84;21470;-57
2021/11/19 04:22:23;;;;;;;25.60;16.45;;;;;;;3.25;84.17;99596.41;1718054;82;21526;-57
2021/11/19 04:24:56;;;;;;;22.13;15.78;;;;;;;3.15;84.38;99593.53;1681393;82;21424;-57
2021/11/19 04:27:23;;;;;;;22.22;14.70;;;;;;;3.08;84.73;99598.78;1681996;84;22027;-57
2021/11/19 04:30:06;;;;;;;20.43;14.43;;;;;;;3.14;84.92;99600.89;1705979;82;21526;-56
2021/11/19 04:32:33;;;;;;;20.40;14.90;;;;;;;3.27;84.66;99588.15;1747548;80;21518;-57
2021/11/19 04:35:00;;;;;;;22.58;15.23;;;;;;;3.29;84.40;99576.84;1750704;80;21632;-56
2021/11/19 04:37:27;;;;;;;20.95;15.03;;;;;;;3.27;84.25;99579.91;1748367;80;21428;-57
2021/11/19 04:39:53;;;;;;;19.67;14.23;;;;;;;3.25;83.93;99573.87;1761154;80;21836;-57
2021/11/19 04:42:20;;;;;;;22.62;14.83;;;;;;;3.30;83.94;99555.63;1746123;80;21541;-57
2021/11/19 04:44:49;;;;;;;29.60;15.68;;;;;;;3.34;83.44;99559.05;1741911;80;21487;-57
2021/11/19 04:47:16;;;;;;;21.60;15.20;;;;;;;3.23;83.07;99548.35;1742912;80;21448;-58
2021/11/19 04:49:43;;;;;;;22.55;14.55;;;;;;;3.16;83.21;99570.55;1750473;80;21616;-56
2021/11/19 04:52:11;;;;;;;20.65;14.58;;;;;;;3.03;83.25;99564.23;1753855;80;22009;-56
2021/11/19 04:54:38;;;;;;;22.52;14.50;;;;;;;3.09;83.67;99573.69;1749486;80;21496;-56
2021/11/19 04:57:06;;;;;;;24.07;14.78;;;;;;;3.07;83.55;99562.43;1749014;80;21482;-56
2021/11/19 04:59:33;;;;;;;;;;;;;;;3.01;83.30;99566.42;1738597;80;21522;-56
2021/11/19 05:02:03;;;;;;;18.37;12.88;;;;;;;2.90;83.56;99571.73;1738758;80;22128;-56
2021/11/19 05:04:49;;;;;;;21.68;13.48;;;;;;;2.83;83.88;99570.98;1742264;79;21777;-56
2021/11/19 05:07:17;;;;;;;23.65;14.80;;;;;;;2.86;83.85;99572.25;1741382;80;21455;-57
2021/11/19 05:09:43;;;;;;;24.98;16.37;;;;;;;2.84;83.68;99574.42;1739385;80;21637;-56
2021/11/19 05:12:19;;;;;;;21.80;13.58;;;;;;;2.79;83.61;99565.41;1747845;80;21498;-56
2021/11/19 05:14:49;;;;;;;26.62;14.38;;;;;;;2.69;83.83;99570.27;1752500;80;21486;-57
2021/11/19 05:17:17;;;;;;;23.32;15.15;;;;;;;2.75;84.03;99555.94;1748383;80;21855;-57
2021/11/19 05:19:45;;;;;;;22.17;14.43;;;;;;;2.81;83.78;99555.01;1743540;80;21586;-57
2021/11/19 05:22:12;;;;;;;20.33;14.90;;;;;;;2.76;83.83;99555.50;1755793;80;21502;-58
2021/11/19 05:24:39;;;;;;;19.90;15.20;;;;;;;2.73;83.88;99555.07;1755484;80;21495;-56
2021/11/19 05:27:07;;;;;;;22.37;15.32;;;;;;;2.72;84.07;99559.41;1743851;80;21590;-56
2021/11/19 05:29:34;;;;;;;35.48;24.50;;;;;;;2.82;84.12;99558.86;1738827;80;21701;-56
2021/11/19 05:32:02;;;;;;;26.90;17.85;;;;;;;2.89;83.75;99551.41;1749465;80;21013;-56
2021/11/19 05:34:29;;;;;;;24.77;16.97;;;;;;;2.89;83.65;99545.37;1742782;80;21475;-56
2021/11/19 05:36:56;;;;;;;23.25;15.43;;;;;;;2.80;83.71;99546.33;1755396;80;21479;-56
2021/11/19 05:39:24;;;;;;;25.35;16.17;;;;;;;2.79;83.91;99548.53;1752442;80;21490;-57
2021/11/19 05:41:51;;;;;;;23.07;15.38;;;;;;;2.89;83.98;99546.22;1744875;79;21846;-56
2021/11/19 05:44:19;;;;;;;22.13;14.85;;;;;;;2.95;83.75;99554.37;1735261;80;21423;-56
2021/11/19 05:46:56;;;;;;;26.77;16.50;;;;;;;2.86;83.73;99555.37;1748987;80;21408;-56
2021/11/19 05:49:23;;;;;;;72.50;65.40;;;;;;;2.83;83.72;99557.14;1747142;80;21002;-56
2021/11/19 05:51:54;;;;;;;75.22;53.85;;;;;;;2.82;84.02;99550.22;1749163;80;20978;-56
2021/11/19 05:54:22;;;;;;;26.17;21.07;;;;;;;2.87;83.94;99551.02;1754827;80;21777;-56
2021/11/19 05:56:50;;;;;;;92.53;59.18;;;;;;;2.81;84.02;99549.36;1743386;80;21399;-56
2021/11/19 05:59:17;;;;;;;23.52;16.87;;;;;;;2.76;84.14;99541.21;1750589;80;21443;-58
2021/11/19 06:02:07;;;;;;;22.98;15.32;;;;;;;2.68;84.36;99540.86;1745606;80;21526;-55
2021/11/19 06:04:37;;;;;;;94.55;60.00;;;;;;;2.82;84.31;99537.23;1750046;80;21514;-55
2021/11/19 06:07:16;;;;;;;30.05;20.32;;;;;;;2.81;84.17;99539.42;1757481;79;21849;-57
2021/11/19 06:09:47;;;;;;;38.38;34.35;;;;;;;2.73;84.26;99530.41;1681046;84;21560;-56
2021/11/19 06:12:28;;;;;;;64.35;35.98;;;;;;;2.70;84.52;99533.91;1740855;80;21448;-56
2021/11/19 06:15:00;;;;;;;80.20;39.58;;;;;;;2.73;84.81;99518.72;1740103;80;21432;-57
2021/11/19 06:17:36;;;;;;;160.50;74.75;;;;;;;2.82;84.73;99524.25;1749137;80;21432;-56
2021/11/19 06:20:08;;;;;;;55.20;38.53;;;;;;;2.78;84.67;99512.19;1745589;80;21491;-56
2021/11/19 06:22:42;;;;;;;70.62;42.78;;;;;;;2.75;84.84;99514.40;1739816;80;21499;-56
2021/11/19 06:25:13;;;;;;;121.10;53.08;;;;;;;2.74;85.07;99512.66;1752207;79;21423;-57
2021/11/19 06:27:41;;;;;;;180.40;78.57;;;;;;;2.88;84.98;99509.88;1747781;80;21656;-56
2021/11/19 06:30:11;;;;;;;124.27;55.73;;;;;;;2.91;84.71;99505.95;1742974;80;21483;-56
2021/11/19 06:32:39;;;;;;;41.08;28.47;;;;;;;2.86;84.79;99505.14;1750055;80;21797;-57
2021/11/19 06:35:07;;;;;;;73.62;36.50;;;;;;;2.81;84.98;99501.77;1752704;80;21447;-56
2021/11/19 06:37:34;;;;;;;102.10;45.25;;;;;;;2.84;85.29;99492.63;1721294;80;21546;-56
2021/11/19 06:40:06;;;;;;;95.28;48.52;;;;;;;2.93;85.16;99480.81;1750631;80;21467;-56
2021/11/19 06:42:52;;;;;;;30.30;23.95;;;;;;;2.91;85.12;99474.78;1742187;80;21668;-56
2021/11/19 06:45:37;;;;;;;53.93;30.33;;;;;;;2.89;85.25;99477.84;1754737;80;21811;-56
2021/11/19 06:48:08;;;;;;;104.67;48.78;;;;;;;2.88;85.62;99476.11;1749615;80;21561;-57
2021/11/19 06:50:55;;;;;;;65.80;38.55;;;;;;;2.97;85.65;99473.84;1751723;80;21483;-55
2021/11/19 06:53:32;;;;;;;30.00;23.18;;;;;;;2.94;85.80;99466.95;1749346;80;21538;-55
2021/11/19 06:56:20;;;;;;;74.58;39.25;;;;;;;2.89;85.88;99463.11;1657609;85;21457;-54
2021/11/19 06:58:51;;;;;;;108.45;53.15;;;;;;;2.91;86.09;99455.30;1653208;85;22185;-55
2021/11/19 07:01:18;;;;;;;27.25;17.55;;;;;;;3.06;86.08;99453.77;1697092;80;21527;-55
2021/11/19 07:03:46;;;;;;;32.63;22.90;;;;;;;3.08;85.91;99450.70;1750153;80;21604;-54
2021/11/19 07:06:14;;;;;;;53.58;28.25;;;;;;;3.05;85.83;99444.28;1754638;79;21613;-55
2021/11/19 07:08:41;;;;;;;39.92;23.18;;;;;;;3.01;86.08;99435.24;1746518;80;21624;-55
2021/11/19 07:11:15;;;;;;;21.33;16.62;;;;;;;3.04;86.34;99436.50;1743725;80;22012;-56
2021/11/19 07:13:42;;;;;;;20.43;16.37;;;;;;;3.17;86.33;99429.38;1743441;79;21570;-60
2021/11/19 07:16:09;;;;;;;19.67;15.05;;;;;;;3.11;87.06;99425.98;1746800;79;21558;-56
2021/11/19 07:18:36;;;;;;;19.73;15.23;;;;;;;3.07;86.37;99423.45;1746529;80;21664;-56
2021/11/19 07:21:03;;;;;;;19.95;17.80;;;;;;;3.11;86.52;99422.09;1687088;83;21608;-55
2021/11/19 07:23:30;;;;;;;22.42;17.12;;;;;;;3.23;86.47;99416.28;1746982;80;21984;-55
2021/11/19 07:25:57;;;;;;;20.70;17.23;;;;;;;3.29;86.16;99421.37;1682930;83;21101;-56
2021/11/19 07:28:24;;;;;;;23.57;17.17;;;;;;;3.24;85.92;99414.97;1746195;79;21475;-56
2021/11/19 07:30:57;;;;;;;25.88;18.05;;;;;;;3.19;85.99;99408.13;1748092;80;21559;-57
2021/11/19 07:33:44;;;;;;;21.57;17.23;;;;;;;3.28;86.16;99410.58;1748099;79;21522;-56
2021/11/19 07:36:17;;;;;;;21.25;16.48;;;;;;;3.32;86.15;99416.13;1746857;79;21784;-56
2021/11/19 07:38:44;;;;;;;23.07;17.30;;;;;;;3.31;86.18;99404.00;1757942;80;21567;-56
2021/11/19 07:41:15;;;;;;;20.23;15.95;;;;;;;3.31;86.36;99400.98;1742674;79;22563;-56
2021/11/19 07:43:50;;;;;;;17.90;14.40;;;;;;;3.40;86.55;99400.41;1747178;79;21156;-56
2021/11/19 07:46:26;;;;;;;20.23;15.60;;;;;;;3.54;86.34;99394.50;1743487;79;21007;-56
2021/11/19 07:48:55;;;;;;;20.90;16.27;;;;;;;3.55;86.04;99397.53;1743644;79;22172;-56
2021/11/19 07:51:28;;;;;;;17.23;14.18;;;;;;;3.52;86.16;99392.38;1745539;80;21463;-56
2021/11/19 07:53:56;;;;;;;22.45;14.55;;;;;;;3.52;86.33;99388.47;1709380;81;21618;-56
2021/11/19 07:56:32;;;;;;;19.30;13.47;;;;;;;3.62;86.14;99390.48;1741898;79;21538;-58
2021/11/19 07:59:08;;;;;;;21.15;15.40;;;;;;;3.69;85.91;99392.94;1748281;79;21528;-56
2021/11/19 08:01:36;;;;;;;20.43;14.40;;;;;;;3.62;85.73;99390.48;1733369;80;21898;-56
2021/11/19 08:04:03;;;;;;;18.98;14.93;;;;;;;3.57;86.05;99385.36;1749821;79;21531;-56
2021/11/19 08:06:31;;;;;;;20.02;14.60;;;;;;;3.64;86.24;99381.76;1751252;80;21003;-56
2021/11/19 08:09:17;;;;;;;21.85;15.70;;;;;;;3.68;86.19;99384.71;1745283;80;21447;-55
2021/11/19 08:11:46;;;;;;;17.85;13.80;;;;;;;3.66;86.11;99381.28;1754259;79;21395;-56
2021/11/19 08:14:13;;;;;;;18.05;14.45;;;;;;;3.61;86.21;99378.36;1746882;80;22093;-58
2021/11/19 08:16:46;;;;;;;;;;;;;;;3.68;86.32;99373.02;1762784;80;21479;-57
2021/11/19 08:19:28;;;;;;;20.05;14.95;;;;;;;3.75;86.28;99374.19;1735239;80;20420;-56
2021/11/19 08:21:56;;;;;;;18.32;13.98;;;;;;;3.68;86.11;99369.11;1746776;80;21006;-56
2021/11/19 08:24:23;;;;;;;18.95;14.43;;;;;;;3.68;86.38;99365.66;1744585;80;21577;-56
2021/11/19 08:26:54;;;;;;;17.67;13.70;;;;;;;3.72;86.61;99358.66;1749169;80;21806;-56
2021/11/19 08:29:28;;;;;;;16.02;13.22;;;;;;;3.80;87.11;99348.95;1749585;80;21590;-58
2021/11/19 08:31:55;;;;;;;20.55;15.08;;;;;;;3.82;86.50;99354.98;1746275;80;21550;-56
2021/11/19 08:34:22;;;;;;;16.02;12.98;;;;;;;3.76;86.19;99341.66;1746389;80;21559;-56
2021/11/19 08:36:49;;;;;;;15.90;12.80;;;;;;;3.74;86.77;99339.53;1749478;80;21412;-55
2021/11/19 08:39:18;;;;;;;18.45;14.33;;;;;;;3.85;86.83;99329.77;1750969;80;21872;-56
2021/11/19 08:41:45;;;;;;;16.62;13.78;;;;;;;3.93;86.60;99326.16;1750356;80;21512;-56
2021/11/19 08:44:12;;;;;;;18.13;13.93;;;;;;;3.92;86.71;99322.70;1752396;80;21521;-56
2021/11/19 08:46:44;;;;;;;17.20;13.35;;;;;;;3.92;86.93;99310.13;1758138;80;21856;-56
2021/11/19 08:49:14;;;;;;;17.87;13.50;;;;;;;4.00;87.08;99303.88;1759059;80;21483;-56
2021/11/19 08:51:41;;;;;;;15.75;12.95;;;;;;;4.08;87.06;99299.36;1764044;80;21931;-56
2021/11/19 08:54:11;;;;;;;17.23;14.03;;;;;;;4.08;86.94;99298.05;1766388;80;21446;-56
2021/11/19 08:56:42;;;;;;;16.50;13.30;;;;;;;4.03;86.92;99293.42;1755578;80;21542;-54
2021/11/19 08:59:10;;;;;;;14.15;12.23;;;;;;;4.08;87.28;99286.80;1762068;79;21475;-55
2021/11/19 09:01:40;;;;;;;16.42;12.90;;;;;;;4.17;87.23;99281.84;1753841;79;21633;-56
2021/11/19 09:04:06;;;;;;;16.50;13.00;;;;;;;4.18;87.28;99277.92;1767467;80;21819;-55
2021/11/19 09:06:34;;;;;;;16.00;12.45;;;;;;;4.13;87.15;99266.75;1760038;80;21407;-56
2021/11/19 09:09:03;;;;;;;16.82;12.98;;;;;;;4.12;87.33;99265.48;1756061;80;21446;-56
2021/11/19 09:11:30;;;;;;;18.57;13.55;;;;;;;4.19;87.39;99263.16;1752398;80;21554;-56
2021/11/19 09:13:58;;;;;;;15.65;13.45;;;;;;;4.22;87.17;99261.34;1757265;80;21593;-56
2021/11/19 09:16:35;;;;;;;15.23;12.73;;;;;;;4.16;87.35;99252.80;1704469;83;21677;-55
2021/11/19 09:19:19;;;;;;;15.28;12.20;;;;;;;4.15;87.68;99248.51;1753056;80;21076;-56
2021/11/19 09:21:58;;;;;;;15.90;12.43;;;;;;;4.25;87.48;99250.84;1764383;80;21518;-55
2021/11/19 09:24:30;;;;;;;15.60;12.53;;;;;;;4.29;87.46;99247.30;1726440;80;21545;-56
2021/11/19 09:27:08;;;;;;;18.90;13.08;;;;;;;4.26;87.46;99245.21;1748792;80;22018;-56
2021/11/19 09:29:42;;;;;;;14.90;12.90;;;;;;;4.22;87.34;99237.92;1762131;80;21894;-56
2021/11/19 09:32:10;;;;;;;14.97;12.67;;;;;;;4.34;87.17;99234.61;1758107;79;21464;-55
2021/11/19 09:34:41;;;;;;;17.30;12.55;;;;;;;4.40;87.04;99232.70;1758372;79;21542;-56
2021/11/19 09:37:10;;;;;;;17.40;12.95;;;;;;;4.36;86.96;99227.62;1757246;79;20983;-56
2021/11/19 09:39:39;;;;;;;17.35;11.95;;;;;;;4.32;87.17;99219.03;1696078;82;21608;-56
2021/11/19 09:42:44;;;;;;;17.92;12.07;;;;;;;4.37;87.52;99222.80;1759107;79;21742;-55
2021/11/19 09:45:58;;;;;;;13.98;12.00;;;;;;;4.49;87.16;99217.31;1756426;79;21535;-54
2021/11/19 09:48:48;;;;;;;18.80;12.58;;;;;;;4.49;87.05;99210.80;1756430;79;21617;-55
2021/11/19 09:51:55;;;;;;;17.55;13.20;;;;;;;4.40;87.33;99207.13;1757815;79;21049;-59
2021/11/19 09:54:52;;;;;;;17.00;12.50;;;;;;;4.53;87.71;99199.41;1753219;80;21527;-57
2021/11/19 09:57:44;;;;;;;16.35;12.35;;;;;;;4.61;87.43;99188.34;1763633;80;21813;-57
2021/11/19 10:00:24;;;;;;;16.42;13.03;;;;;;;4.57;87.23;99189.78;1756226;80;21585;-57
2021/11/19 10:03:17;;;;;;;14.45;11.43;;;;;;;4.52;87.39;99179.50;1756478;80;21463;-57
2021/11/19 10:06:09;;;;;;;15.28;12.53;;;;;;;4.61;87.52;99168.81;1764577;80;21498;-58
2021/11/19 10:08:59;;;;;;;14.58;12.63;;;;;;;4.66;87.12;99164.35;1761369;80;21561;-57
2021/11/19 10:11:53;;;;;;;15.23;12.23;;;;;;;4.63;87.24;99155.34;1723462;80;22012;-56
2021/11/19 10:14:40;;;;;;;17.92;11.68;;;;;;;4.69;87.32;99150.41;1756587;80;21534;-56
2021/11/19 10:17:23;;;;;;;15.58;11.95;;;;;;;4.75;87.05;99154.15;1764116;79;21608;-58
2021/11/19 10:20:08;;;;;;;15.90;11.78;;;;;;;4.79;86.97;99145.35;1757492;79;21589;-56
2021/11/19 10:22:42;;;;;;;15.00;10.78;;;;;;;4.72;86.96;99140.35;1765230;80;21545;-56
2021/11/19 10:25:49;;;;;;;14.73;10.75;;;;;;;4.69;87.20;99130.88;1759435;79;21837;-56
2021/11/19 10:28:23;;;;;;;16.23;10.88;;;;;;;4.83;87.07;99135.70;1700181;83;21427;-56
2021/11/19 10:30:53;;;;;;;18.15;11.22;;;;;;;4.87;86.95;99135.56;1677429;80;21546;-56
2021/11/19 10:33:40;;;;;;;13.85;11.00;;;;;;;4.84;86.89;99127.86;1696043;83;21590;-55
2021/11/19 10:36:40;;;;;;;13.03;10.23;;;;;;;4.86;87.12;99111.73;1693580;83;21050;-57
2021/11/19 10:39:43;;;;;;;13.70;10.30;;;;;;;4.98;86.74;99106.61;1752802;80;22163;-57
2021/11/19 10:42:25;;;;;;;11.53;10.30;;;;;;;5.06;86.35;99112.91;1766490;79;20979;-55
2021/11/19 10:45:45;;;;;;;14.53;10.38;;;;;;;4.99;86.56;99107.45;1749588;80;21485;-55
2021/11/19 10:49:00;;;;;;;12.20;9.33;;;;;;;5.08;86.88;99096.77;1751970;80;21592;-56
2021/11/19 10:52:06;;;;;;;13.25;9.68;;;;;;;5.17;86.13;99092.59;1752695;80;21415;-54
2021/11/19 10:54:50;;;;;;;16.85;9.63;;;;;;;5.05;86.33;99091.67;1683876;83;21781;-56
2021/11/19 10:57:58;;;;;;;15.45;9.53;;;;;;;5.11;86.93;99082.82;1696057;82;21585;-56
2021/11/19 11:00:49;;;;;;;11.83;9.50;;;;;;;5.19;86.51;99081.67;1737734;80;21597;-56
2021/11/19 11:03:21;;;;;;;13.93;9.80;;;;;;;5.14;86.56;99081.41;1746675;80;21631;-56
2021/11/19 11:06:08;;;;;;;10.45;9.03;;;;;;;5.12;86.79;99071.02;1752853;80;21522;-56
2021/11/19 11:08:40;;;;;;;11.93;9.05;;;;;;;5.22;86.90;99067.26;1746154;80;21057;-56
2021/11/19 11:11:27;;;;;;;13.10;9.65;;;;;;;5.35;86.48;99066.44;1752401;79;21644;-56
2021/11/19 11:14:02;;;;;;;12.33;9.35;;;;;;;5.28;86.60;99065.38;1743434;79;21654;-55
2021/11/19 11:16:40;;;;;;;11.65;8.73;;;;;;;5.22;87.14;99071.63;1746201;79;21526;-56
2021/11/19 11:19:16;;;;;;;10.70;7.87;;;;;;;5.29;86.95;99062.70;1752580;80;20982;-55
2021/11/19 11:21:52;;;;;;;10.40;7.90;;;;;;;5.32;86.95;99057.86;1745249;79;22017;-54
2021/11/19 11:24:37;;;;;;;14.10;8.63;;;;;;;5.24;87.23;99054.19;1742374;80;21431;-54
2021/11/19 11:27:39;;;;;;;11.05;8.55;;;;;;;5.23;87.30;99045.95;1746389;80;21517;-55
2021/11/19 11:30:11;;;;;;;11.50;8.13;;;;;;;5.27;87.61;99042.34;1748871;80;21511;-54
2021/11/19 11:33:26;;;;;;;9.25;7.95;;;;;;;5.36;87.33;99045.12;1745813;80;21968;-56
2021/11/19 11:36:11;;;;;;;11.08;7.25;;;;;;;5.35;87.35;99049.50;1696653;83;21838;-54
2021/11/19 11:38:49;;;;;;;10.88;7.47;;;;;;;5.38;87.52;99056.36;1698489;83;21025;-56
2021/11/19 11:41:26;;;;;;;;;;;;;;;5.40;86.98;99046.73;1727806;80;21499;-55
2021/11/19 11:44:16;;;;;;;;;;;;;;;5.38;87.31;99042.02;1691348;82;20450;-56
2021/11/19 11:47:05;;;;;;;7.72;6.92;;;;;;;5.32;87.58;99046.97;1693133;83;20467;-58
2021/11/19 11:49:45;;;;;;;7.62;6.37;;;;;;;5.35;87.94;99053.41;1692276;82;21758;-58
2021/11/19 11:52:14;;;;;;;83.17;49.42;;;;;;;5.44;87.93;99045.73;1699963;83;22012;-57
2021/11/19 11:55:08;;;;;;;16.10;13.08;;;;;;;5.45;87.46;99035.72;1698351;82;21513;-57
2021/11/19 11:57:56;;;;;;;174.90;96.87;;;;;;;5.41;87.54;99042.78;1602771;86;21071;-56
2021/11/19 12:01:03;;;;;;;27.55;18.20;;;;;;;5.44;87.96;99040.09;1671748;82;21135;-57
2021/11/19 12:03:55;;;;;;;13.15;11.48;;;;;;;5.53;87.81;99036.31;1698423;82;21796;-57